createdAt,value
2023-02-07T00:00:14.996Z,-4.06
2023-02-07T00:02:46.358Z,-4.09
2023-02-07T00:05:15.845Z,-4.09
2023-02-07T00:07:44.810Z,-4.14
2023-02-07T00:10:13.393Z,-4.14
2023-02-07T00:12:41.971Z,-4.13
2023-02-07T00:15:11.346Z,-4.18
2023-02-07T00:17:40.113Z,-4.26
2023-02-07T00:20:12.923Z,-4.26
2023-02-07T00:22:41.434Z,-4.28
2023-02-07T00:25:10.102Z,-4.26
2023-02-07T00:27:39.166Z,-4.26
2023-02-07T00:30:08.853Z,-4.32
2023-02-07T00:32:37.600Z,-4.45
2023-02-07T00:35:07.057Z,-4.33
2023-02-07T00:37:36.602Z,-4.34
2023-02-07T00:40:06.779Z,-4.43
2023-02-07T00:42:35.332Z,-4.46
2023-02-07T00:45:04.062Z,-4.51
2023-02-07T00:47:32.611Z,-4.53
2023-02-07T00:50:00.873Z,-4.54
2023-02-07T00:52:29.156Z,-4.62
2023-02-07T00:54:58.845Z,-4.59
2023-02-07T00:57:27.252Z,-4.65
2023-02-07T00:59:55.637Z,-4.71
2023-02-07T01:02:23.864Z,-4.69
2023-02-07T01:04:52.546Z,-4.74
2023-02-07T01:07:20.836Z,-4.75
2023-02-07T01:09:49.286Z,-4.78
2023-02-07T01:12:20.340Z,-4.95
2023-02-07T01:14:49.991Z,-5.05
2023-02-07T01:17:18.973Z,-4.92
2023-02-07T01:19:47.380Z,-4.91
2023-02-07T01:22:15.730Z,-4.91
2023-02-07T01:24:44.034Z,-4.92
2023-02-07T01:27:12.802Z,-4.91
2023-02-07T01:29:43.178Z,-4.97
2023-02-07T01:32:11.618Z,-5.00
2023-02-07T01:34:39.897Z,-5.15
2023-02-07T01:37:08.866Z,-5.10
2023-02-07T01:39:36.948Z,-5.14
2023-02-07T01:42:05.643Z,-5.15
2023-02-07T01:45:04.810Z,-5.15
2023-02-07T01:47:35.891Z,-5.27
2023-02-07T01:50:05.195Z,-5.31
2023-02-07T01:52:37.881Z,-5.23
2023-02-07T01:55:10.585Z,-5.27
2023-02-07T01:57:39.791Z,-5.30
2023-02-07T02:00:11.822Z,-5.28
2023-02-07T02:02:40.636Z,-5.37
2023-02-07T02:05:10.829Z,-5.37
2023-02-07T02:07:40.034Z,-5.48
2023-02-07T02:10:14.462Z,-5.28
2023-02-07T02:13:14.960Z,-5.44
2023-02-07T02:15:54.344Z,-5.50
2023-02-07T02:18:49.238Z,-5.59
2023-02-07T02:22:00.857Z,-5.59
2023-02-07T02:25:02.153Z,-5.65
2023-02-07T02:27:46.902Z,-5.61
2023-02-07T02:30:39.099Z,-5.66
2023-02-07T02:33:34.265Z,-5.79
2023-02-07T02:36:10.647Z,-5.91
2023-02-07T02:38:49.239Z,-5.96
2023-02-07T02:41:23.410Z,-5.98
2023-02-07T02:43:58.471Z,-5.99
2023-02-07T02:46:30.169Z,-5.98
2023-02-07T02:49:00.873Z,-6.06
2023-02-07T02:51:30.912Z,-6.02
2023-02-07T02:54:01.173Z,-6.07
2023-02-07T02:56:55.499Z,-6.10
2023-02-07T02:59:42.436Z,-6.00
2023-02-07T03:02:23.274Z,-6.19
2023-02-07T03:05:15.667Z,-6.16
2023-02-07T03:07:51.434Z,-6.25
2023-02-07T03:10:31.014Z,-6.32
2023-02-07T03:13:03.492Z,-6.30
2023-02-07T03:15:38.645Z,-6.35
2023-02-07T03:18:15.892Z,-6.26
2023-02-07T03:20:50.333Z,-6.30
2023-02-07T03:23:21.169Z,-6.35
2023-02-07T03:25:52.621Z,-6.41
2023-02-07T03:28:23.405Z,-6.43
2023-02-07T03:30:54.230Z,-6.38
2023-02-07T03:33:25.507Z,-6.07
2023-02-07T03:36:03.664Z,-6.24
2023-02-07T03:38:31.972Z,-6.12
2023-02-07T03:41:07.282Z,-6.30
2023-02-07T03:43:38.810Z,-6.36
2023-02-07T03:46:10.772Z,-6.44
2023-02-07T03:48:39.703Z,-6.42
2023-02-07T03:51:09.551Z,-6.11
2023-02-07T03:53:37.709Z,-6.32
2023-02-07T03:56:06.581Z,-6.35
2023-02-07T03:58:34.784Z,-6.43
2023-02-07T04:01:04.730Z,-6.64
2023-02-07T04:03:33.103Z,-6.68
2023-02-07T04:06:02.709Z,-6.68
2023-02-07T04:08:33.622Z,-6.39
2023-02-07T04:11:03.462Z,-6.52
2023-02-07T04:13:32.543Z,-6.55
2023-02-07T04:16:02.538Z,-6.64
2023-02-07T04:18:31.053Z,-6.58
2023-02-07T04:21:03.350Z,-6.54
2023-02-07T04:23:33.882Z,-6.71
2023-02-07T04:26:02.546Z,-6.56
2023-02-07T04:28:31.861Z,-6.53
2023-02-07T04:31:00.101Z,-6.59
2023-02-07T04:33:28.397Z,-6.59
2023-02-07T04:35:57.702Z,-6.54
2023-02-07T04:38:26.918Z,-6.63
2023-02-07T04:40:59.802Z,-6.56
2023-02-07T04:43:28.304Z,-6.46
2023-02-07T04:45:57.120Z,-6.56
2023-02-07T04:48:26.097Z,-6.63
2023-02-07T04:50:54.982Z,-6.78
2023-02-07T04:53:23.367Z,-6.78
2023-02-07T04:55:52.555Z,-6.84
2023-02-07T04:58:23.608Z,-6.78
2023-02-07T05:00:52.113Z,-6.84
2023-02-07T05:03:20.373Z,-6.89
2023-02-07T05:05:48.702Z,-6.90
2023-02-07T05:08:17.258Z,-7.03
2023-02-07T05:10:45.746Z,-6.92
2023-02-07T05:13:14.009Z,-6.96
2023-02-07T05:15:44.549Z,-7.02
2023-02-07T05:18:13.254Z,-6.95
2023-02-07T05:20:41.808Z,-6.98
2023-02-07T05:23:10.513Z,-7.02
2023-02-07T05:25:39.175Z,-7.05
2023-02-07T05:28:08.120Z,-7.12
2023-02-07T05:30:36.751Z,-7.20
2023-02-07T05:33:08.566Z,-7.05
2023-02-07T05:35:38.906Z,-7.13
2023-02-07T05:38:10.016Z,-7.13
2023-02-07T05:40:39.133Z,-7.10
2023-02-07T05:43:08.010Z,-7.05
2023-02-07T05:45:37.467Z,-7.14
2023-02-07T05:48:08.152Z,-7.06
2023-02-07T05:50:36.942Z,-6.98
2023-02-07T05:53:05.653Z,-7.09
2023-02-07T05:55:34.148Z,-7.02
2023-02-07T05:58:02.561Z,-7.06
2023-02-07T06:00:30.984Z,-7.10
2023-02-07T06:02:59.154Z,-7.08
2023-02-07T06:05:32.037Z,-7.07
2023-02-07T06:08:00.949Z,-7.20
2023-02-07T06:10:29.425Z,-7.25
2023-02-07T06:12:57.637Z,-7.19
2023-02-07T06:15:26.291Z,-7.30
2023-02-07T06:17:54.800Z,-7.29
2023-02-07T06:20:23.470Z,-7.27
2023-02-07T06:22:53.219Z,-7.23
2023-02-07T06:25:21.891Z,-7.27
2023-02-07T06:27:50.275Z,-7.26
2023-02-07T06:30:19.074Z,-7.30
2023-02-07T06:32:47.196Z,-7.22
2023-02-07T06:35:15.714Z,-7.17
2023-02-07T06:37:44.400Z,-7.30
2023-02-07T06:40:14.942Z,-7.21
2023-02-07T06:42:43.963Z,-7.19
2023-02-07T06:45:12.551Z,-7.22
2023-02-07T06:47:41.230Z,-7.17
2023-02-07T06:50:10.351Z,-7.28
2023-02-07T06:52:38.565Z,-7.15
2023-02-07T06:55:07.392Z,-7.09
2023-02-07T06:57:37.715Z,-7.15
2023-02-07T07:00:06.629Z,-7.14
2023-02-07T07:02:34.836Z,-7.12
2023-02-07T07:05:04.030Z,-7.05
2023-02-07T07:07:32.389Z,-6.97
2023-02-07T07:10:00.790Z,-7.04
2023-02-07T07:12:29.689Z,-7.08
2023-02-07T07:14:59.085Z,-7.09
2023-02-07T07:17:27.357Z,-7.16
2023-02-07T07:19:55.433Z,-7.03
2023-02-07T07:22:23.461Z,-6.88
2023-02-07T07:24:51.560Z,-6.97
2023-02-07T07:27:19.975Z,-6.84
2023-02-07T07:29:48.149Z,-6.88
2023-02-07T07:32:32.309Z,-6.83
2023-02-07T07:35:02.723Z,-6.81
2023-02-07T07:37:31.006Z,-6.79
2023-02-07T07:39:59.795Z,-6.66
2023-02-07T07:42:28.921Z,-6.57
2023-02-07T07:44:57.276Z,-6.61
2023-02-07T07:47:28.520Z,-6.60
2023-02-07T07:49:56.884Z,-6.60
2023-02-07T07:52:25.284Z,-6.49
2023-02-07T07:54:53.767Z,-6.42
2023-02-07T07:57:22.341Z,-6.39
2023-02-07T07:59:50.854Z,-6.32
2023-02-07T08:02:19.055Z,-6.19
2023-02-07T08:04:48.806Z,-6.21
2023-02-07T08:07:17.764Z,-6.34
2023-02-07T08:09:46.460Z,-6.30
2023-02-07T08:12:15.920Z,-6.21
2023-02-07T08:14:44.318Z,-6.17
2023-02-07T08:17:13.429Z,-6.14
2023-02-07T08:19:41.907Z,-6.19
2023-02-07T08:22:14.460Z,-6.09
2023-02-07T08:24:43.357Z,-6.03
2023-02-07T08:27:11.967Z,-5.88
2023-02-07T08:29:40.430Z,-5.78
2023-02-07T08:32:08.810Z,-5.67
2023-02-07T08:34:38.296Z,-5.56
2023-02-07T08:37:07.318Z,-5.57
2023-02-07T08:39:37.696Z,-5.50
2023-02-07T08:42:08.204Z,-5.49
2023-02-07T08:44:37.103Z,-5.37
2023-02-07T08:47:06.270Z,-5.32
2023-02-07T08:49:34.681Z,-5.18
2023-02-07T08:52:03.058Z,-5.34
2023-02-07T08:54:31.233Z,-5.23
2023-02-07T08:57:01.009Z,-5.23
2023-02-07T08:59:29.326Z,-5.16
2023-02-07T09:01:57.590Z,-5.09
2023-02-07T09:04:26.999Z,-5.11
2023-02-07T09:06:55.202Z,-4.93
2023-02-07T09:09:23.373Z,-4.86
2023-02-07T09:11:51.817Z,-4.85
2023-02-07T09:14:21.680Z,-4.97
2023-02-07T09:16:49.971Z,-4.84
2023-02-07T09:19:18.299Z,-4.65
2023-02-07T09:21:46.322Z,-4.53
2023-02-07T09:24:14.497Z,-4.59
2023-02-07T09:26:42.941Z,-4.54
2023-02-07T09:29:14.339Z,-4.48
2023-02-07T09:31:44.478Z,-4.40
2023-02-07T09:34:12.627Z,-4.37
2023-02-07T09:36:40.915Z,-4.29
2023-02-07T09:39:08.951Z,-4.24
2023-02-07T09:41:43.699Z,-4.24
2023-02-07T09:44:17.452Z,-4.16
2023-02-07T09:46:49.088Z,-4.05
2023-02-07T09:49:33.424Z,-3.91
2023-02-07T09:52:05.719Z,-3.85
2023-02-07T09:54:39.557Z,-4.05
2023-02-07T09:57:15.257Z,-3.83
2023-02-07T09:59:51.665Z,-3.97
2023-02-07T10:02:26.950Z,-3.94
2023-02-07T10:04:59.966Z,-3.82
2023-02-07T10:07:27.936Z,-3.74
2023-02-07T10:09:56.514Z,-3.57
2023-02-07T10:12:46.725Z,-3.50
2023-02-07T10:15:32.884Z,-3.30
2023-02-07T10:18:22.140Z,-3.18
2023-02-07T10:21:01.167Z,-3.09
2023-02-07T10:23:40.919Z,-3.24
2023-02-07T10:26:17.580Z,-3.21
2023-02-07T10:29:21.033Z,-3.00
2023-02-07T10:31:53.679Z,-2.92
2023-02-07T10:34:25.877Z,-2.75
2023-02-07T10:36:58.111Z,-2.70
2023-02-07T10:39:32.971Z,-2.63
2023-02-07T10:42:01.245Z,-2.59
2023-02-07T10:44:29.790Z,-2.56
2023-02-07T10:47:03.024Z,-2.41
2023-02-07T10:49:36.187Z,-2.38
2023-02-07T10:52:14.887Z,-2.35
2023-02-07T10:54:52.805Z,-2.29
2023-02-07T10:57:22.314Z,-2.25
2023-02-07T10:59:51.094Z,-2.18
2023-02-07T11:02:48.430Z,-2.03
2023-02-07T11:05:37.569Z,-1.99
2023-02-07T11:08:10.166Z,-1.94
2023-02-07T11:10:41.126Z,-1.77
2023-02-07T11:13:15.647Z,-1.80
2023-02-07T11:15:53.884Z,-1.57
2023-02-07T11:18:38.093Z,-1.78
2023-02-07T11:21:09.456Z,-1.86
2023-02-07T11:23:38.151Z,-1.80
2023-02-07T11:26:07.146Z,-1.82
2023-02-07T11:28:35.522Z,-1.79
2023-02-07T11:31:08.882Z,-1.80
2023-02-07T11:33:38.634Z,-1.76
2023-02-07T11:36:32.734Z,-1.70
2023-02-07T11:39:02.217Z,-1.44
2023-02-07T11:41:32.861Z,-1.45
2023-02-07T11:44:03.585Z,-1.60
2023-02-07T11:46:36.302Z,-1.51
2023-02-07T11:49:09.462Z,-1.42
2023-02-07T11:51:40.367Z,-1.34
2023-02-07T11:54:09.938Z,-1.33
2023-02-07T11:56:40.972Z,-1.23
2023-02-07T11:59:16.001Z,-1.30
2023-02-07T12:01:45.851Z,-1.16
2023-02-07T12:04:18.197Z,-0.93
2023-02-07T12:06:54.235Z,-0.95
2023-02-07T12:09:31.938Z,-0.88
2023-02-07T12:12:04.525Z,-0.88
2023-02-07T12:14:40.838Z,-0.78
2023-02-07T12:17:16.633Z,-0.58
2023-02-07T12:19:54.193Z,-0.61
2023-02-07T12:22:30.212Z,-0.56
2023-02-07T12:25:04.535Z,-0.51
2023-02-07T12:27:38.637Z,-0.34
2023-02-07T12:30:15.995Z,-0.22
2023-02-07T12:32:55.787Z,-0.33
2023-02-07T12:35:29.752Z,-0.02
2023-02-07T12:38:01.018Z,-0.04
2023-02-07T12:40:35.353Z,-0.10
2023-02-07T12:43:11.400Z,-0.03
2023-02-07T12:45:53.225Z,0.04
2023-02-07T12:48:31.897Z,0.30
2023-02-07T12:51:11.034Z,0.25
2023-02-07T12:53:58.858Z,0.03
2023-02-07T12:56:41.771Z,0.18
2023-02-07T12:59:21.220Z,0.25
2023-02-07T13:01:55.020Z,0.37
2023-02-07T13:04:49.479Z,0.19
2023-02-07T13:07:30.771Z,0.35
2023-02-07T13:10:12.649Z,0.26
2023-02-07T13:12:47.349Z,0.17
2023-02-07T13:15:26.136Z,0.30
2023-02-07T13:18:01.560Z,0.44
2023-02-07T13:20:43.534Z,0.31
2023-02-07T13:23:18.280Z,0.32
2023-02-07T13:25:51.455Z,0.43
2023-02-07T13:28:26.656Z,0.47
2023-02-07T13:30:57.494Z,0.57
2023-02-07T13:33:32.316Z,0.56
2023-02-07T13:36:07.167Z,0.52
2023-02-07T13:39:12.930Z,0.49
2023-02-07T13:41:51.960Z,0.60
2023-02-07T13:44:26.601Z,0.55
2023-02-07T13:47:11.690Z,0.55
2023-02-07T13:49:47.703Z,0.58
2023-02-07T13:52:22.131Z,0.67
2023-02-07T13:54:57.886Z,0.45
2023-02-07T13:58:00.750Z,0.54
2023-02-07T14:00:31.113Z,0.56
2023-02-07T14:03:01.613Z,0.57
2023-02-07T14:05:32.061Z,0.46
2023-02-07T14:08:03.140Z,0.54
2023-02-07T14:10:45.785Z,0.53
2023-02-07T14:13:32.034Z,0.53
2023-02-07T14:16:07.287Z,0.47
2023-02-07T14:18:42.674Z,0.59
2023-02-07T14:21:31.337Z,0.52
2023-02-07T14:24:04.496Z,0.54
2023-02-07T14:26:57.586Z,0.64
2023-02-07T14:30:02.673Z,0.65
2023-02-07T14:32:44.365Z,0.65
2023-02-07T14:35:31.619Z,0.63
2023-02-07T14:38:09.993Z,0.60
2023-02-07T14:41:08.433Z,0.62
2023-02-07T14:44:07.397Z,0.63
2023-02-07T14:46:41.960Z,0.64
2023-02-07T14:49:20.317Z,0.63
2023-02-07T14:51:51.109Z,0.63
2023-02-07T14:54:28.110Z,0.61
2023-02-07T14:57:04.596Z,0.62
2023-02-07T14:59:37.764Z,0.66
2023-02-07T15:02:30.767Z,0.63
2023-02-07T15:05:16.729Z,0.60
2023-02-07T15:07:47.258Z,0.56
2023-02-07T15:10:17.444Z,0.53
2023-02-07T15:12:45.743Z,0.57
2023-02-07T15:15:22.131Z,0.53
2023-02-07T15:17:51.698Z,0.52
2023-02-07T15:20:25.053Z,0.45
2023-02-07T15:22:56.134Z,0.31
2023-02-07T15:25:25.195Z,0.34
2023-02-07T15:28:09.239Z,0.30
2023-02-07T15:30:39.493Z,0.30
2023-02-07T15:33:24.262Z,0.17
2023-02-07T15:35:53.813Z,0.33
2023-02-07T15:38:25.766Z,0.19
2023-02-07T15:40:57.113Z,0.19
2023-02-07T15:43:29.806Z,0.24
2023-02-07T15:46:07.741Z,0.25
2023-02-07T15:48:48.479Z,0.26
2023-02-07T15:51:20.919Z,0.28
2023-02-07T15:53:56.702Z,0.26
2023-02-07T15:56:26.084Z,0.34
2023-02-07T15:58:58.755Z,0.35
2023-02-07T16:01:29.944Z,0.36
2023-02-07T16:04:00.174Z,0.28
2023-02-07T16:06:32.728Z,0.29
2023-02-07T16:09:04.524Z,0.20
2023-02-07T16:11:41.458Z,0.15
2023-02-07T16:14:22.479Z,0.15
2023-02-07T16:16:55.127Z,0.05
2023-02-07T16:19:26.851Z,0.02
2023-02-07T16:22:03.220Z,-0.02
2023-02-07T16:24:36.567Z,-0.09
2023-02-07T16:27:05.870Z,-0.07
2023-02-07T16:29:37.145Z,-0.20
2023-02-07T16:32:05.818Z,-0.24
2023-02-07T16:34:34.043Z,-0.29
2023-02-07T16:37:04.395Z,-0.35
2023-02-07T16:39:32.473Z,-0.40
2023-02-07T16:42:05.068Z,-0.55
2023-02-07T16:44:36.439Z,-0.68
2023-02-07T16:47:05.240Z,-0.59
2023-02-07T16:49:34.420Z,-0.71
2023-02-07T16:52:03.893Z,-0.82
2023-02-07T16:54:32.239Z,-0.65
2023-02-07T16:57:04.048Z,-0.86
2023-02-07T16:59:33.035Z,-0.85
2023-02-07T17:02:01.426Z,-0.88
2023-02-07T17:04:29.540Z,-1.01
2023-02-07T17:06:57.818Z,-0.95
2023-02-07T17:09:27.579Z,-1.00
2023-02-07T17:11:56.428Z,-1.06
2023-02-07T17:14:25.281Z,-1.06
2023-02-07T17:16:53.253Z,-1.09
2023-02-07T17:19:24.010Z,-1.13
2023-02-07T17:21:53.526Z,-1.16
2023-02-07T17:24:21.796Z,-1.25
2023-02-07T17:26:54.597Z,-1.32
2023-02-07T17:29:23.895Z,-1.37
2023-02-07T17:31:52.730Z,-1.39
2023-02-07T17:34:21.073Z,-1.43
2023-02-07T17:36:51.205Z,-1.47
2023-02-07T17:39:20.713Z,-1.63
2023-02-07T17:41:50.639Z,-1.72
2023-02-07T17:44:23.210Z,-1.82
2023-02-07T17:46:51.587Z,-1.96
2023-02-07T17:49:20.488Z,-2.13
2023-02-07T17:51:48.861Z,-2.20
2023-02-07T17:54:17.346Z,-2.17
2023-02-07T17:56:46.115Z,-2.17
2023-02-07T17:59:25.658Z,-2.25
2023-02-07T18:01:54.256Z,-2.29
2023-02-07T18:04:23.039Z,-2.40
2023-02-07T18:06:51.124Z,-2.53
2023-02-07T18:09:21.081Z,-2.64
2023-02-07T18:11:50.053Z,-2.72
2023-02-07T18:14:19.434Z,-2.76
2023-02-07T18:16:49.618Z,-2.78
2023-02-07T18:19:20.431Z,-2.88
2023-02-07T18:21:49.898Z,-2.91
2023-02-07T18:24:18.542Z,-3.00
2023-02-07T18:26:47.236Z,-3.01
2023-02-07T18:29:16.919Z,-3.04
2023-02-07T18:31:46.192Z,-2.92
2023-02-07T18:34:17.492Z,-3.02
2023-02-07T18:36:46.789Z,-2.85
2023-02-07T18:39:16.297Z,-2.92
2023-02-07T18:41:45.718Z,-2.94
2023-02-07T18:44:14.707Z,-2.99
2023-02-07T18:46:43.073Z,-3.02
2023-02-07T18:49:13.408Z,-3.04
2023-02-07T18:51:44.963Z,-3.00
2023-02-07T18:54:13.764Z,-3.08
2023-02-07T18:56:42.473Z,-3.06
2023-02-07T18:59:12.261Z,-3.14
2023-02-07T19:01:40.892Z,-3.15
2023-02-07T19:04:10.177Z,-3.20
2023-02-07T19:06:38.876Z,-3.27
2023-02-07T19:09:10.622Z,-3.26
2023-02-07T19:11:41.222Z,-3.27
2023-02-07T19:14:15.767Z,-3.40
2023-02-07T19:16:46.498Z,-3.31
2023-02-07T19:19:16.522Z,-3.33
2023-02-07T19:21:44.847Z,-3.28
2023-02-07T19:24:19.017Z,-3.34
2023-02-07T19:26:48.002Z,-3.29
2023-02-07T19:29:18.648Z,-3.35
2023-02-07T19:31:48.082Z,-3.30
2023-02-07T19:34:17.483Z,-3.45
2023-02-07T19:36:46.861Z,-3.60
2023-02-07T19:39:19.437Z,-3.58
2023-02-07T19:41:49.288Z,-3.64
2023-02-07T19:44:20.730Z,-3.70
2023-02-07T19:46:52.683Z,-3.73
2023-02-07T19:49:20.968Z,-3.73
2023-02-07T19:51:50.587Z,-3.83
2023-02-07T19:54:20.519Z,-3.65
2023-02-07T19:56:51.209Z,-3.66
2023-02-07T19:59:19.949Z,-3.73
2023-02-07T20:01:48.153Z,-3.59
2023-02-07T20:04:16.804Z,-3.72
2023-02-07T20:06:44.971Z,-3.80
2023-02-07T20:09:13.270Z,-3.87
2023-02-07T20:11:42.963Z,-3.73
2023-02-07T20:14:11.266Z,-3.76
2023-02-07T20:16:40.224Z,-3.88
2023-02-07T20:19:09.181Z,-3.93
2023-02-07T20:21:38.347Z,-3.99
2023-02-07T20:24:07.542Z,-3.92
2023-02-07T20:26:39.145Z,-3.99
2023-02-07T20:29:11.785Z,-4.04
2023-02-07T20:31:41.114Z,-3.96
2023-02-07T20:34:09.517Z,-3.88
2023-02-07T20:36:41.421Z,-3.88
2023-02-07T20:39:12.547Z,-3.77
2023-02-07T20:41:43.362Z,-3.66
2023-02-07T20:44:16.115Z,-3.72
2023-02-07T20:46:46.594Z,-3.70
2023-02-07T20:49:17.486Z,-3.73
2023-02-07T20:51:48.733Z,-3.64
2023-02-07T20:54:18.374Z,-3.67
2023-02-07T20:56:46.705Z,-3.69
2023-02-07T20:59:18.996Z,-3.59
2023-02-07T21:01:47.789Z,-3.68
2023-02-07T21:04:15.868Z,-3.71
2023-02-07T21:06:44.959Z,-3.68
2023-02-07T21:09:14.169Z,-3.75
2023-02-07T21:11:45.216Z,-3.71
2023-02-07T21:14:18.441Z,-3.64
2023-02-07T21:16:47.048Z,-3.75
2023-02-07T21:19:17.830Z,-3.82
2023-02-07T21:21:47.135Z,-3.85
2023-02-07T21:24:16.451Z,-3.96
2023-02-07T21:26:44.717Z,-3.95
2023-02-07T21:29:13.702Z,-3.97
2023-02-07T21:31:43.380Z,-4.09
2023-02-07T21:34:13.167Z,-3.98
2023-02-07T21:36:41.468Z,-4.17
2023-02-07T21:39:12.357Z,-4.21
2023-02-07T21:41:42.360Z,-4.44
2023-02-07T21:44:11.674Z,-4.66
2023-02-07T21:46:43.350Z,-4.71
2023-02-07T21:49:14.816Z,-4.85
2023-02-07T21:51:44.725Z,-4.70
2023-02-07T21:54:12.807Z,-4.91
2023-02-07T21:56:43.523Z,-4.81
2023-02-07T21:59:14.477Z,-4.85
2023-02-07T22:01:45.020Z,-4.91
2023-02-07T22:04:14.423Z,-4.93
2023-02-07T22:06:44.293Z,-4.94
2023-02-07T22:09:14.468Z,-5.07
2023-02-07T22:11:42.765Z,-5.03
2023-02-07T22:14:12.901Z,-5.06
2023-02-07T22:16:41.954Z,-5.18
2023-02-07T22:19:17.256Z,-5.40
2023-02-07T22:21:46.086Z,-5.53
2023-02-07T22:24:16.201Z,-5.62
2023-02-07T22:26:45.611Z,-5.64
2023-02-07T22:29:14.300Z,-5.67
2023-02-07T22:31:43.148Z,-5.71
2023-02-07T22:34:14.145Z,-5.73
2023-02-07T22:36:44.779Z,-5.81
2023-02-07T22:39:14.609Z,-5.85
2023-02-07T22:41:42.650Z,-5.88
2023-02-07T22:44:10.762Z,-5.98
2023-02-07T22:46:39.486Z,-6.01
2023-02-07T22:49:07.536Z,-6.07
2023-02-07T22:51:38.491Z,-6.10
2023-02-07T22:54:09.053Z,-6.16
2023-02-07T22:56:39.056Z,-6.17
2023-02-07T22:59:08.220Z,-6.17
2023-02-07T23:01:39.112Z,-6.16
2023-02-07T23:04:09.513Z,-6.14
2023-02-07T23:06:39.053Z,-6.20
2023-02-07T23:09:07.089Z,-6.24
2023-02-07T23:11:35.524Z,-6.36
2023-02-07T23:14:03.527Z,-6.33
2023-02-07T23:16:32.346Z,-6.04
2023-02-07T23:19:07.001Z,-6.24
2023-02-07T23:21:35.152Z,-6.18
2023-02-07T23:24:04.899Z,-6.26
2023-02-07T23:26:33.247Z,-6.40
2023-02-07T23:29:01.580Z,-6.42
2023-02-07T23:31:30.091Z,-6.57
2023-02-07T23:33:58.480Z,-6.49
2023-02-07T23:36:27.226Z,-6.53
2023-02-07T23:38:55.174Z,-6.52
2023-02-07T23:41:24.725Z,-6.46
2023-02-07T23:43:52.740Z,-6.57
2023-02-07T23:46:21.193Z,-6.58
2023-02-07T23:48:49.194Z,-6.67
2023-02-07T23:51:17.334Z,-6.72
2023-02-07T23:53:46.780Z,-6.85
2023-02-07T23:56:16.811Z,-6.82
2023-02-07T23:58:47.124Z,-6.76
